WetterOnline ( https://www.wetteronline.de )

Wetter aktuell Roodeschool

Aktuelles Wetter: Emden (5m)

6-stündlich | Neueste Meldungen
Ortszeit Temperatur Wetter
Mi, 05.08. 8:00 16.7° C leicht bewölkt
Mi, 05.08. 2:00 15.6° C bedeckt
Di, 04.08. 20:00 17.9° C bedeckt
Di, 04.08. 14:00 19.3° C fast wolkenlos
Di, 04.08. 8:00 13.4° C bewölkt
Di, 04.08. 2:00 10.2° C leicht bewölkt
Mo, 03.08. 20:00 18.3° C wolkig
Mo, 03.08. 14:00 15.4° C leichter Regen
Ortszeit Temperatur Wetter
Mi, 05.08. 10:30 19.4° C wolkig
Mi, 05.08. 10:20 19.4° C wolkig
Mi, 05.08. 10:10 19.1° C bewölkt
Mi, 05.08. 10:00 18.5° C bedeckt
Mi, 05.08. 9:50 18.5° C bedeckt
Mi, 05.08. 9:40 18.5° C bewölkt
Mi, 05.08. 9:30 18.0° C bewölkt
Mi, 05.08. 9:00 17.9° C bedeckt
Mi, 05.08. 8:30 17.6° C wolkig
Mi, 05.08. 8:00 16.7° C leicht bewölkt
Mi, 05.08. 7:30 16.0° C wolkenlos
Ortszeit Relative Feuchte Sichtweite
Mi, 05.08. 8:00 62% >70 km
Mi, 05.08. 2:00 69% >70 km
Di, 04.08. 20:00 56% >70 km
Di, 04.08. 14:00 55% >70 km
Di, 04.08. 8:00 94% 50 km
Di, 04.08. 2:00 99% 25 km
Mo, 03.08. 20:00 68% >70 km
Mo, 03.08. 14:00 88% 13 km
Ortszeit Relative Feuchte Sichtweite
Mi, 05.08. 10:30 55% 55 km
Mi, 05.08. 10:20 55% -
Mi, 05.08. 10:10 56% -
Mi, 05.08. 10:00 58% 55 km
Mi, 05.08. 9:50 58% -
Mi, 05.08. 9:40 58% -
Mi, 05.08. 9:30 60% >70 km
Mi, 05.08. 9:00 60% 65 km
Mi, 05.08. 8:30 59% 45 km
Mi, 05.08. 8:00 62% >70 km
Mi, 05.08. 7:30 61% >70 km
Ortszeit Niederschlagsmenge Niederschlagsart
Mi, 05.08. 8:00 0.0 l/m2 in 12 Std. -
Mi, 05.08. 2:00 0.0 l/m2 in 6 Std. -
Di, 04.08. 20:00 0.1 l/m2 in 12 Std. -
Di, 04.08. 14:00 0.1 l/m2 in 6 Std. Regen
Di, 04.08. 8:00 0.0 l/m2 in 12 Std. -
Di, 04.08. 2:00 0.0 l/m2 in 6 Std. -
Mo, 03.08. 20:00 3 l/m2 in 12 Std. Regen
Mo, 03.08. 14:00 3 l/m2 in 6 Std. Regen
Ortszeit Niederschlagsmenge Niederschlagsart
Mi, 05.08. 10:30 0.0 l/m2 in 1 Std. -
Mi, 05.08. 10:20 keine Meldung -
Mi, 05.08. 10:10 keine Meldung -
Mi, 05.08. 10:00 0.0 l/m2 in 1 Std. -
Mi, 05.08. 9:50 keine Meldung -
Mi, 05.08. 9:40 keine Meldung -
Mi, 05.08. 9:30 0.0 l/m2 in 1 Std. -
Mi, 05.08. 9:00 0.0 l/m2 in 1 Std. -
Mi, 05.08. 8:30 0.0 l/m2 in 1 Std. -
Mi, 05.08. 8:00 0.0 l/m2 in 1 Std. -
Mi, 05.08. 7:30 0.0 l/m2 in 1 Std. -
Ortszeit Stärke Spitze Richtung
km/h Bft. km/h Grad Sektor
Mi, 05.08. 8:00 18 3 32 200° S
Mi, 05.08. 2:00 11 2 18 160° S
Di, 04.08. 20:00 7 2 32 330° NW
Di, 04.08. 14:00 17 3 31 290° W
Di, 04.08. 8:00 4 1 18 230° SW
Di, 04.08. 2:00 0 0 14 - -
Mo, 03.08. 20:00 9 2 15 290° W
Mo, 03.08. 14:00 4 1 36 210° SW
Ortszeit Stärke Spitze Richtung
km/h Bft. km/h Grad Sektor
Mi, 05.08. 10:30 24 4 35 200° S
Mi, 05.08. 10:20 24 4 - 200° S
Mi, 05.08. 10:10 19 3 - 190° S
Mi, 05.08. 10:00 18 3 40 200° S
Mi, 05.08. 9:50 18 3 - 200° S
Mi, 05.08. 9:40 25 4 - 210° SW
Mi, 05.08. 9:30 26 4 39 200° S
Mi, 05.08. 9:00 20 4 37 200° S
Mi, 05.08. 8:30 17 3 31 200° S
Mi, 05.08. 8:00 18 3 32 200° S
Mi, 05.08. 7:30 17 3 30 190° S
Ortszeit Untergrenze Bedeckung Gattung
total tief tief mittel hoch
Mi, 05.08. 8:00 10500 m 3/8 0/8 - - -
Mi, 05.08. 2:00 3000 m 8/8 8/8 - - -
Di, 04.08. 20:00 4800 m 8/8 8/8 - - -
Di, 04.08. 14:00 1080 m 1/8 1/8 - - -
Di, 04.08. 8:00 1800 m 7/8 7/8 - - -
Di, 04.08. 2:00 2400 m 2/8 2/8 - - -
Mo, 03.08. 20:00 2400 m 8/8 1/8 - - -
Mo, 03.08. 14:00 2100 m 8/8 8/8 - - -
Ortszeit Bedeckungsgrad in Achtel und Wolkenuntergrenze
Mi, 05.08. 10:30 5(2400m) 6(9000m) 6(10500m)
Mi, 05.08. 10:20 5(2400m) 6(9000m) 6(10500m)
Mi, 05.08. 10:10 7(2400m)
Mi, 05.08. 10:00 8(2400m)
Mi, 05.08. 9:50 8(2400m)
Mi, 05.08. 9:40 7(2400m)
Mi, 05.08. 9:30 7(2400m)
Mi, 05.08. 9:00 8(2400m)
Mi, 05.08. 8:30 6(2400m)
Mi, 05.08. 8:00 2(10500m) 3(10500m) 4(10500m)
Mi, 05.08. 7:30 2(10500m)
Ortszeit Luftdruck NN (hPa) Tendenz (hPa in 3 Std.)
Mi, 05.08. 8:00 1015 + 0,5
Mi, 05.08. 2:00 1015 - 0,7
Di, 04.08. 20:00 1016 - 0,3
Di, 04.08. 14:00 1017 + 0,3
Di, 04.08. 8:00 1016 + 1,0
Di, 04.08. 2:00 1015 + 1,2
Mo, 03.08. 20:00 1013 - 0,4
Mo, 03.08. 14:00 1014 + 0,1
Ortszeit Luftdruck NN (hPa) Tendenz (hPa in 3 Std.)
Mi, 05.08. 10:30 1015 + 0,5
Mi, 05.08. 10:20 1015 keine Meldung
Mi, 05.08. 10:10 1015 keine Meldung
Mi, 05.08. 10:00 1015 + 0,6
Mi, 05.08. 9:50 1015 keine Meldung
Mi, 05.08. 9:40 1015 keine Meldung
Mi, 05.08. 9:30 1015 + 0,8
Mi, 05.08. 9:00 1014 + 0,4
Mi, 05.08. 8:30 1015 + 0,7
Mi, 05.08. 8:00 1015 + 0,5
Mi, 05.08. 7:30 1014 + 0,2
Ortszeit Schneehöhe (cm)
Mi, 05.08. 8:00 -
Mi, 05.08. 2:00 -
Di, 04.08. 20:00 -
Di, 04.08. 14:00 -
Di, 04.08. 8:00 -
Di, 04.08. 2:00 -
Mo, 03.08. 20:00 -
Mo, 03.08. 14:00 -
Ortszeit Schneehöhe (cm)
Mi, 05.08. 10:30 -
Mi, 05.08. 10:20 -
Mi, 05.08. 10:10 -
Mi, 05.08. 10:00 -
Mi, 05.08. 9:50 -
Mi, 05.08. 9:40 -
Mi, 05.08. 9:30 -
Mi, 05.08. 9:00 -
Mi, 05.08. 8:30 -
Mi, 05.08. 8:00 -
Mi, 05.08. 7:30 -
Link zu dieser Seite / Seite empfehlen

Das Wetter in ...